Time;durP1;ratioP1;P1;durP2;ratioP2;P2;SDS_P1;SDS_P2;PMS_P1;PMS_P2;Temp;Humidity;BMP_temperature;BMP_pressure;BME280_temperature;BME280_humidity;BME280_pressure;Samples;Min_cycle;Max_cycle;Signal;HPM_P1;HPM_P2
2022/03/22 00:00:32;;;;;;;10.13;7.03;;;20.40;52.30;;;;;;4879985;29;20140;-58
2022/03/22 00:02:58;;;;;;;8.77;6.60;;;20.40;52.30;;;;;;4880736;29;20096;-57
2022/03/22 00:05:23;;;;;;;10.10;7.30;;;20.40;52.30;;;;;;4879481;29;20429;-58
2022/03/22 00:07:49;;;;;;;8.43;6.70;;;20.40;52.30;;;;;;4880558;29;20072;-58
2022/03/22 00:10:15;;;;;;;11.65;6.97;;;20.40;52.30;;;;;;4880258;29;20080;-58
2022/03/22 00:12:41;;;;;;;9.23;6.75;;;20.40;52.30;;;;;;4879420;29;20053;-58
2022/03/22 00:15:08;;;;;;;9.27;6.68;;;20.40;52.30;;;;;;4880367;29;20053;-58
2022/03/22 00:17:34;;;;;;;8.80;6.75;;;20.30;52.20;;;;;;4878595;29;20409;-58
2022/03/22 00:20:00;;;;;;;11.55;6.45;;;20.30;52.20;;;;;;4879568;29;20489;-58
2022/03/22 00:22:26;;;;;;;10.00;6.65;;;20.30;52.20;;;;;;4880076;29;20056;-58
2022/03/22 00:24:51;;;;;;;10.35;6.63;;;20.30;52.10;;;;;;4879929;29;20558;-56
2022/03/22 00:27:17;;;;;;;8.32;6.40;;;20.30;52.10;;;;;;4879140;29;20197;-59
2022/03/22 00:29:42;;;;;;;10.52;6.90;;;20.30;52.10;;;;;;4880309;29;20457;-58
2022/03/22 00:32:08;;;;;;;9.63;6.68;;;20.30;52.00;;;;;;4880099;29;20047;-59
2022/03/22 00:34:34;;;;;;;9.75;6.53;;;20.30;52.10;;;;;;4877565;29;20045;-58
2022/03/22 00:37:00;;;;;;;10.57;6.70;;;20.30;52.00;;;;;;4880145;29;20186;-58
2022/03/22 00:39:26;;;;;;;9.63;6.93;;;20.30;52.10;;;;;;4879597;29;20128;-58
2022/03/22 00:41:53;;;;;;;10.13;6.63;;;20.20;52.00;;;;;;4878964;29;20416;-58
2022/03/22 00:44:18;;;;;;;8.90;6.20;;;20.20;52.00;;;;;;4879435;29;20074;-58
2022/03/22 00:46:44;;;;;;;9.13;6.30;;;20.20;52.00;;;;;;4879795;29;20047;-58
2022/03/22 00:49:09;;;;;;;10.70;6.88;;;20.20;52.00;;;;;;4877488;29;20184;-58
2022/03/22 00:51:35;;;;;;;8.27;6.35;;;20.20;52.00;;;;;;4879505;29;20497;-58
2022/03/22 00:54:03;;;;;;;10.20;7.13;;;20.20;51.90;;;;;;4879865;29;20173;-58
2022/03/22 00:56:31;;;;;;;8.93;6.40;;;20.20;51.80;;;;;;4878633;29;20056;-59
2022/03/22 01:01:41;;;;;;;9.88;7.03;;;20.20;51.80;;;;;;4878959;29;19924;-58
2022/03/22 01:04:06;;;;;;;10.93;7.13;;;20.20;51.90;;;;;;4879188;29;20041;-58
2022/03/22 01:06:33;;;;;;;9.18;6.35;;;20.10;51.90;;;;;;4879052;29;20045;-59
2022/03/22 01:08:59;;;;;;;9.15;6.82;;;20.10;51.80;;;;;;4878605;29;20128;-59
2022/03/22 01:11:24;;;;;;;12.05;6.63;;;20.10;51.80;;;;;;4879091;29;20049;-58
2022/03/22 01:13:50;;;;;;;10.05;6.57;;;20.10;51.70;;;;;;4878992;29;20104;-58
2022/03/22 01:16:15;;;;;;;9.15;6.85;;;20.10;51.80;;;;;;4878157;29;20052;-59
2022/03/22 01:18:41;;;;;;;8.45;6.50;;;20.10;51.70;;;;;;4879235;29;20508;-58
2022/03/22 01:21:07;;;;;;;8.30;6.32;;;20.10;51.70;;;;;;4879356;29;20489;-59
2022/03/22 01:23:32;;;;;;;10.80;6.72;;;20.10;51.60;;;;;;4878216;29;20041;-59
2022/03/22 01:25:58;;;;;;;9.30;6.85;;;20.10;51.80;;;;;;4879134;29;20045;-58
2022/03/22 01:28:23;;;;;;;8.68;6.50;;;20.10;51.70;;;;;;4877744;29;20089;-59
2022/03/22 01:30:49;;;;;;;9.82;6.97;;;20.10;51.60;;;;;;4878212;29;20453;-59
2022/03/22 01:33:15;;;;;;;9.52;6.40;;;20.10;51.60;;;;;;4878807;29;20179;-59
2022/03/22 01:35:41;;;;;;;9.30;6.70;;;20.10;51.60;;;;;;4879213;29;20097;-59
2022/03/22 01:38:07;;;;;;;9.10;6.53;;;20.00;51.60;;;;;;4878245;29;20068;-59
2022/03/22 01:40:33;;;;;;;9.60;6.65;;;20.10;51.60;;;;;;4878459;29;20070;-59
2022/03/22 01:42:58;;;;;;;10.57;6.88;;;20.00;51.60;;;;;;4879154;29;20397;-59
2022/03/22 01:45:24;;;;;;;10.40;6.78;;;20.00;51.50;;;;;;4877647;29;20208;-59
2022/03/22 01:47:50;;;;;;;9.23;6.55;;;20.00;51.50;;;;;;4878648;29;20041;-59
2022/03/22 01:50:16;;;;;;;8.73;6.68;;;20.00;51.50;;;;;;4878817;29;20047;-58
2022/03/22 01:52:43;;;;;;;8.63;6.50;;;20.00;51.50;;;;;;4878225;29;20049;-59
2022/03/22 01:55:13;;;;;;;9.10;6.50;;;20.00;51.40;;;;;;4878691;29;20052;-59
2022/03/22 01:57:38;;;;;;;8.88;5.97;;;20.00;51.40;;;;;;4877535;29;20139;-58
2022/03/22 02:00:05;;;;;;;9.88;6.90;;;20.00;51.30;;;;;;4878496;29;20128;-59
2022/03/22 02:08:00;;;;;;;7.75;5.88;;;19.90;51.30;;;;;;4878929;29;20049;-58
2022/03/22 02:10:26;;;;;;;9.13;6.05;;;20.00;51.40;;;;;;4878417;29;20057;-58
2022/03/22 02:12:51;;;;;;;9.43;6.60;;;19.90;51.30;;;;;;4880179;29;20057;-58
2022/03/22 02:15:17;;;;;;;10.15;6.45;;;19.90;51.30;;;;;;4882032;29;20049;-59
2022/03/22 02:17:45;;;;;;;8.43;6.40;;;19.90;51.30;;;;;;4882590;29;20049;-58
2022/03/22 02:20:11;;;;;;;;;;;19.90;51.40;;;;;;4881613;29;20124;-58
2022/03/22 02:22:43;;;;;;;8.73;6.53;;;19.90;51.30;;;;;;4882345;29;19923;-58
2022/03/22 02:25:15;;;;;;;8.82;6.43;;;19.90;51.30;;;;;;4882245;29;20056;-59
2022/03/22 02:27:43;;;;;;;9.57;6.35;;;19.90;51.30;;;;;;4881493;29;20049;-58
2022/03/22 02:30:10;;;;;;;8.30;6.40;;;19.90;51.30;;;;;;4880817;29;20053;-58
2022/03/22 02:32:36;;;;;;;10.60;6.32;;;19.90;51.30;;;;;;4882117;29;20096;-58
2022/03/22 02:35:03;;;;;;;8.68;6.30;;;19.90;51.30;;;;;;4881470;29;20135;-58
2022/03/22 02:37:29;;;;;;;7.65;6.35;;;19.90;51.30;;;;;;4881868;29;20057;-58
2022/03/22 02:39:54;;;;;;;8.73;6.28;;;19.90;51.40;;;;;;4881554;29;20394;-58
2022/03/22 02:42:20;;;;;;;7.97;6.05;;;20.00;51.40;;;;;;4881522;29;20140;-59
2022/03/22 02:44:46;;;;;;;8.13;6.00;;;19.90;51.40;;;;;;4880751;29;20055;-58
2022/03/22 02:47:11;;;;;;;8.40;6.07;;;19.90;51.30;;;;;;4880999;29;20139;-58
2022/03/22 02:49:37;;;;;;;7.80;5.97;;;19.90;51.30;;;;;;4882024;29;20056;-58
2022/03/22 02:52:03;;;;;;;9.00;6.43;;;20.00;51.40;;;;;;4881613;29;20729;-58
2022/03/22 02:54:28;;;;;;;8.50;6.15;;;20.00;51.40;;;;;;4880819;29;20108;-58
2022/03/22 02:56:54;;;;;;;8.90;6.45;;;20.00;51.40;;;;;;4881489;29;20049;-58
2022/03/22 02:59:19;;;;;;;8.25;6.25;;;20.00;51.30;;;;;;4881161;29;20053;-58
2022/03/22 03:01:45;;;;;;;7.82;6.63;;;20.00;51.30;;;;;;4880710;29;20087;-58
2022/03/22 03:04:10;;;;;;;10.43;5.97;;;20.00;51.20;;;;;;4881031;29;20056;-58
2022/03/22 03:06:36;;;;;;;7.50;5.82;;;20.00;51.40;;;;;;4881062;29;20045;-59
2022/03/22 03:09:02;;;;;;;7.63;6.22;;;20.00;51.30;;;;;;4880880;29;20037;-58
2022/03/22 03:11:27;;;;;;;8.63;6.35;;;20.00;52.00;;;;;;4881198;29;20116;-59
2022/03/22 03:16:39;;;;;;;7.32;5.70;;;20.10;51.20;;;;;;4880893;29;20080;-59
2022/03/22 03:19:05;;;;;;;7.45;5.90;;;20.10;51.20;;;;;;4881343;29;20056;-58
2022/03/22 03:21:30;;;;;;;8.85;6.18;;;20.10;51.10;;;;;;4881112;29;20049;-59
2022/03/22 03:23:56;;;;;;;6.95;5.95;;;20.10;51.10;;;;;;4879371;29;20613;-59
2022/03/22 03:26:21;;;;;;;8.38;6.00;;;20.10;51.00;;;;;;4880955;29;20067;-58
2022/03/22 03:28:47;;;;;;;7.65;5.78;;;20.20;51.10;;;;;;4881299;29;20620;-59
2022/03/22 03:31:12;;;;;;;8.00;5.63;;;20.20;51.10;;;;;;4880064;29;20049;-59
2022/03/22 03:33:38;;;;;;;7.93;6.22;;;20.10;51.00;;;;;;4881074;29;20577;-59
2022/03/22 03:36:04;;;;;;;8.20;6.05;;;20.20;51.10;;;;;;4880955;29;20053;-58
2022/03/22 03:38:29;;;;;;;7.72;5.63;;;20.10;50.90;;;;;;4880523;29;20064;-59
2022/03/22 03:43:39;;;;;;;7.40;5.80;;;20.20;51.00;;;;;;4880327;29;20049;-58
2022/03/22 03:48:49;;;;;;;7.82;5.72;;;20.20;51.00;;;;;;4880671;29;20120;-58
2022/03/22 03:51:14;;;;;;;8.13;6.03;;;20.20;51.00;;;;;;4879563;29;20053;-59
2022/03/22 03:53:40;;;;;;;8.63;6.22;;;20.20;51.00;;;;;;4880956;29;20139;-59
2022/03/22 03:56:05;;;;;;;7.78;5.95;;;20.20;51.00;;;;;;4880670;29;20044;-59
2022/03/22 03:58:31;;;;;;;9.48;6.20;;;20.20;51.00;;;;;;4879390;29;20052;-59
2022/03/22 04:00:56;;;;;;;8.32;6.00;;;20.20;51.00;;;;;;4880463;29;20049;-59
2022/03/22 04:03:22;;;;;;;7.55;5.97;;;20.20;51.00;;;;;;4880403;29;20048;-59
2022/03/22 04:05:48;;;;;;;8.57;6.45;;;20.20;51.00;;;;;;4879864;29;20060;-59
2022/03/22 04:08:13;;;;;;;7.78;5.75;;;20.30;51.00;;;;;;4880395;29;20045;-58
2022/03/22 04:10:39;;;;;;;8.27;5.55;;;20.30;51.00;;;;;;4880489;29;20055;-59
2022/03/22 04:13:04;;;;;;;8.45;6.15;;;20.30;51.00;;;;;;4879198;29;20109;-59
2022/03/22 04:15:30;;;;;;;7.70;6.00;;;20.30;51.00;;;;;;4880189;29;20874;-58
2022/03/22 04:17:59;;;;;;;8.57;5.97;;;20.30;51.00;;;;;;4880287;29;20059;-59
2022/03/22 04:20:26;;;;;;;8.55;5.97;;;20.30;51.00;;;;;;4878993;29;20509;-59
2022/03/22 04:22:51;;;;;;;7.30;5.45;;;20.30;50.90;;;;;;4880295;29;20045;-59
2022/03/22 04:25:17;;;;;;;7.70;5.88;;;20.30;50.90;;;;;;4879897;29;20047;-59
2022/03/22 04:33:11;;;;;;;8.65;5.88;;;20.30;51.00;;;;;;4879077;29;20045;-58
2022/03/22 04:35:39;;;;;;;8.40;6.10;;;20.30;51.00;;;;;;4879650;29;20124;-59
2022/03/22 04:38:04;;;;;;;7.43;5.63;;;20.30;50.90;;;;;;4880040;29;20040;-59
2022/03/22 04:40:30;;;;;;;7.57;6.00;;;20.30;50.90;;;;;;4878921;29;20065;-58
2022/03/22 04:42:55;;;;;;;8.32;6.10;;;20.30;50.90;;;;;;4879715;29;20101;-58
2022/03/22 04:45:21;;;;;;;9.27;6.32;;;20.30;50.90;;;;;;4879595;29;20049;-58
2022/03/22 04:47:47;;;;;;;7.93;6.07;;;20.30;50.90;;;;;;4879155;29;20051;-58
2022/03/22 04:50:13;;;;;;;6.72;5.53;;;20.30;50.90;;;;;;4879689;29;20049;-59
2022/03/22 04:58:08;;;;;;;8.45;5.93;;;20.30;50.90;;;;;;4879730;29;20045;-59
2022/03/22 05:00:36;;;;;;;7.38;5.68;;;20.30;50.80;;;;;;4876870;29;20365;-59
2022/03/22 05:03:02;;;;;;;7.07;5.63;;;20.30;50.80;;;;;;4872933;29;20454;-59
2022/03/22 05:08:12;;;;;;;8.18;5.65;;;20.30;50.80;;;;;;4878286;29;20057;-59
2022/03/22 05:10:38;;;;;;;7.63;5.97;;;20.30;50.80;;;;;;4879457;29;20045;-59
2022/03/22 05:13:04;;;;;;;7.40;6.00;;;20.40;51.60;;;;;;4879103;29;20497;-59
2022/03/22 05:15:31;;;;;;;8.27;5.90;;;20.30;50.80;;;;;;4878248;29;20060;-59
2022/03/22 05:17:56;;;;;;;9.23;6.32;;;20.30;50.80;;;;;;4879299;29;20056;-59
2022/03/22 05:20:22;;;;;;;9.07;6.53;;;20.30;50.80;;;;;;4878734;29;20053;-59
2022/03/22 05:22:48;;;;;;;8.25;5.95;;;20.30;50.80;;;;;;4878678;29;20052;-59
2022/03/22 05:25:14;;;;;;;8.43;6.00;;;20.30;50.80;;;;;;4879053;29;20052;-59
2022/03/22 05:27:39;;;;;;;8.40;6.50;;;20.30;50.80;;;;;;4879171;29;20116;-59
2022/03/22 05:30:06;;;;;;;8.02;5.72;;;20.30;50.80;;;;;;4878556;29;20509;-59
2022/03/22 05:32:31;;;;;;;6.88;5.75;;;20.30;50.80;;;;;;4878614;29;20520;-59
2022/03/22 05:34:57;;;;;;;9.18;6.22;;;20.30;50.80;;;;;;4879141;29;20093;-58
2022/03/22 05:37:22;;;;;;;7.35;5.97;;;20.30;50.80;;;;;;4878285;29;20049;-59
2022/03/22 05:39:48;;;;;;;8.88;6.25;;;20.30;50.80;;;;;;4878866;29;20088;-59
2022/03/22 05:42:14;;;;;;;8.93;6.20;;;20.30;50.80;;;;;;4878560;29;20516;-59
2022/03/22 05:44:40;;;;;;;8.73;6.70;;;20.30;50.80;;;;;;4878457;29;20056;-59
2022/03/22 05:47:06;;;;;;;8.65;6.68;;;20.30;50.80;;;;;;4878307;29;20053;-59
2022/03/22 05:49:33;;;;;;;8.30;6.40;;;20.30;50.80;;;;;;4878807;29;20049;-59
2022/03/22 05:51:59;;;;;;;7.18;6.00;;;20.30;50.80;;;;;;4878332;29;20057;-59
2022/03/22 05:54:25;;;;;;;7.07;5.88;;;20.30;50.80;;;;;;4878720;29;20128;-59
2022/03/22 05:56:50;;;;;;;7.47;5.93;;;20.30;50.70;;;;;;4878101;29;20136;-59
2022/03/22 05:59:16;;;;;;;7.95;6.03;;;20.30;50.80;;;;;;4878632;29;20041;-59
2022/03/22 06:01:44;;;;;;;8.57;6.68;;;20.30;50.80;;;;;;4878982;29;20500;-59
2022/03/22 06:04:10;;;;;;;8.38;6.47;;;20.30;50.70;;;;;;4877891;29;20451;-59
2022/03/22 06:06:36;;;;;;;7.20;5.88;;;20.30;50.80;;;;;;4878657;29;20481;-59
2022/03/22 06:09:02;;;;;;;7.68;6.57;;;20.30;50.80;;;;;;4878653;29;20052;-59
2022/03/22 06:11:29;;;;;;;7.80;6.00;;;20.30;50.70;;;;;;4877650;29;20113;-59
2022/03/22 06:13:54;;;;;;;8.43;6.57;;;20.30;50.70;;;;;;4878410;29;20057;-59
2022/03/22 06:16:20;;;;;;;8.40;6.20;;;20.30;50.70;;;;;;4878577;29;20434;-59
2022/03/22 06:18:45;;;;;;;8.57;6.15;;;20.40;50.80;;;;;;4878132;29;20045;-59
2022/03/22 06:21:11;;;;;;;9.18;6.32;;;20.40;50.70;;;;;;4878426;29;20497;-59
2022/03/22 06:23:36;;;;;;;9.88;6.57;;;20.40;50.70;;;;;;4878635;29;20507;-58
2022/03/22 06:26:02;;;;;;;9.20;6.70;;;20.40;50.80;;;;;;4877929;29;20053;-58
2022/03/22 06:28:28;;;;;;;11.48;7.70;;;20.40;50.60;;;;;;4878018;29;20045;-58
2022/03/22 06:30:53;;;;;;;10.10;7.18;;;20.40;50.30;;;;;;4878645;29;20041;-58
2022/03/22 06:33:22;;;;;;;9.95;6.93;;;20.40;50.10;;;;;;4877619;29;20128;-59
2022/03/22 06:35:48;;;;;;;8.77;7.00;;;20.40;50.10;;;;;;4878647;29;20045;-59
2022/03/22 06:38:13;;;;;;;10.25;8.23;;;20.40;50.20;;;;;;4878279;29;20049;-59
2022/03/22 06:40:39;;;;;;;13.57;7.38;;;20.40;50.10;;;;;;4877699;29;20064;-59
2022/03/22 06:43:07;;;;;;;11.57;7.50;;;20.50;50.20;;;;;;4878162;29;20116;-58
2022/03/22 06:45:33;;;;;;;;;;;20.40;50.10;;;;;;4878397;29;20500;-59
2022/03/22 06:48:00;;;;;;;10.20;7.78;;;20.40;50.20;;;;;;4877927;29;19924;-59
2022/03/22 06:50:25;;;;;;;11.30;7.50;;;20.50;50.20;;;;;;4878170;29;20045;-59
2022/03/22 06:52:51;;;;;;;11.60;7.47;;;20.50;50.30;;;;;;4878502;29;20045;-59
2022/03/22 06:55:22;;;;;;;11.15;7.45;;;20.50;50.30;;;;;;4877149;29;20053;-58
2022/03/22 06:57:48;;;;;;;12.55;8.23;;;20.50;50.40;;;;;;4879216;29;20080;-58
2022/03/22 07:00:17;;;;;;;10.38;7.35;;;20.50;50.30;;;;;;4880768;29;20129;-59
2022/03/22 07:02:42;;;;;;;13.63;7.70;;;20.50;50.40;;;;;;4877561;29;20048;-58
2022/03/22 07:05:08;;;;;;;9.40;7.25;;;20.50;50.60;;;;;;4878263;29;20044;-58
2022/03/22 07:07:35;;;;;;;10.15;7.15;;;20.60;50.80;;;;;;4878965;29;20045;-58
2022/03/22 07:10:01;;;;;;;11.82;7.32;;;20.60;50.90;;;;;;4879129;29;20517;-59
2022/03/22 07:12:26;;;;;;;12.82;7.38;;;20.60;51.10;;;;;;4880357;29;20063;-58
2022/03/22 07:14:53;;;;;;;11.93;7.65;;;20.60;51.10;;;;;;4880275;29;20059;-60
2022/03/22 07:17:19;;;;;;;12.10;7.65;;;20.60;51.10;;;;;;4881304;29;20119;-59
2022/03/22 07:19:44;;;;;;;9.90;7.50;;;20.70;51.20;;;;;;4881453;29;20128;-58
2022/03/22 07:22:12;;;;;;;10.18;7.10;;;20.70;51.30;;;;;;4880686;29;20053;-59
2022/03/22 07:24:38;;;;;;;9.32;6.70;;;20.70;51.20;;;;;;4881297;29;20056;-58
2022/03/22 07:27:04;;;;;;;13.20;8.00;;;20.80;51.30;;;;;;4881233;29;20045;-58
2022/03/22 07:29:31;;;;;;;10.45;7.10;;;20.70;51.30;;;;;;4880215;29;20076;-58
2022/03/22 07:31:59;;;;;;;10.98;7.05;;;20.80;51.40;;;;;;4881105;29;20049;-58
2022/03/22 07:34:25;;;;;;;10.98;7.50;;;20.80;51.40;;;;;;4880792;29;20041;-59
2022/03/22 07:36:53;;;;;;;11.13;6.97;;;20.80;51.40;;;;;;4880226;29;20080;-58
2022/03/22 07:39:20;;;;;;;12.05;7.10;;;20.80;51.50;;;;;;4880483;29;20128;-59
2022/03/22 07:41:45;;;;;;;9.68;7.15;;;20.80;51.60;;;;;;4879808;29;20472;-58
2022/03/22 07:44:15;;;;;;;9.18;7.00;;;20.90;51.80;;;;;;4879767;29;20084;-58
2022/03/22 07:46:41;;;;;;;10.52;6.60;;;20.90;51.80;;;;;;4880837;29;20076;-58
2022/03/22 07:54:35;;;;;;;8.85;7.25;;;21.00;52.00;;;;;;4893029;29;20080;-58
2022/03/22 07:57:01;;;;;;;9.40;6.72;;;21.00;52.00;;;;;;4898303;29;20470;-57
2022/03/22 07:59:27;;;;;;;11.20;7.30;;;21.00;52.10;;;;;;4899116;29;20127;-58
2022/03/22 08:01:53;;;;;;;8.10;6.28;;;21.00;52.20;;;;;;4899438;29;20059;-58
2022/03/22 08:04:19;;;;;;;9.38;6.90;;;21.00;52.20;;;;;;4898501;29;20076;-58
2022/03/22 08:06:44;;;;;;;10.48;7.25;;;21.00;52.20;;;;;;4899373;29;20079;-57
2022/03/22 08:09:10;;;;;;;9.43;7.00;;;21.10;52.30;;;;;;4898688;29;20049;-58
2022/03/22 08:11:36;;;;;;;9.43;6.57;;;21.10;52.20;;;;;;4898163;29;20060;-58
2022/03/22 08:14:03;;;;;;;9.27;7.45;;;21.10;52.20;;;;;;4898830;29;20489;-59
2022/03/22 08:16:28;;;;;;;9.50;7.32;;;21.10;52.30;;;;;;4898846;29;20104;-59
2022/03/22 08:18:54;;;;;;;9.98;6.78;;;21.10;52.90;;;;;;4883274;29;20040;-58
2022/03/22 08:21:20;;;;;;;8.90;6.90;;;21.10;52.20;;;;;;4880000;29;20084;-58
2022/03/22 08:23:45;;;;;;;8.30;6.10;;;21.20;52.20;;;;;;4880240;29;20060;-59
2022/03/22 08:26:11;;;;;;;10.40;7.10;;;21.20;52.20;;;;;;4879134;29;20060;-59
2022/03/22 08:28:36;;;;;;;9.52;7.88;;;21.20;52.30;;;;;;4879910;29;20053;-58
2022/03/22 08:31:02;;;;;;;9.65;7.15;;;21.20;52.30;;;;;;4880038;29;20100;-58
2022/03/22 08:33:28;;;;;;;7.50;6.40;;;21.30;52.30;;;;;;4878839;29;20045;-58
2022/03/22 08:35:53;;;;;;;11.35;6.38;;;21.30;52.30;;;;;;4880142;29;20060;-58
2022/03/22 08:38:19;;;;;;;9.13;6.72;;;21.30;52.30;;;;;;4879445;29;20053;-58
2022/03/22 08:40:45;;;;;;;13.55;7.53;;;21.30;52.40;;;;;;4879161;29;20057;-59
2022/03/22 08:43:11;;;;;;;9.00;6.63;;;21.30;52.40;;;;;;4879633;29;20386;-58
2022/03/22 08:45:37;;;;;;;7.97;6.30;;;21.30;52.40;;;;;;4879207;29;20049;-59
2022/03/22 08:48:09;;;;;;;7.75;6.30;;;21.30;52.40;;;;;;4887007;29;20043;-58
2022/03/22 08:50:34;;;;;;;9.63;6.88;;;21.30;52.50;;;;;;4898041;29;20135;-59
2022/03/22 08:53:01;;;;;;;9.57;6.97;;;21.30;52.40;;;;;;4897508;29;20173;-59
2022/03/22 08:55:26;;;;;;;11.18;7.03;;;21.40;52.50;;;;;;4895701;29;20045;-58
2022/03/22 08:57:52;;;;;;;9.13;6.47;;;21.40;52.50;;;;;;4878764;29;20057;-58
2022/03/22 09:00:19;;;;;;;9.07;6.53;;;21.40;52.60;;;;;;4878908;29;20568;-58
2022/03/22 09:02:45;;;;;;;10.65;7.03;;;21.40;52.50;;;;;;4879687;29;20052;-58
2022/03/22 09:08:00;;;;;;;8.43;6.03;;;21.40;52.40;;;;;;4879008;29;20049;-59
2022/03/22 09:10:26;;;;;;;9.05;7.13;;;21.40;52.40;;;;;;4879371;29;20121;-58
2022/03/22 09:12:52;;;;;;;7.78;6.47;;;21.40;52.40;;;;;;4879343;29;20107;-58
2022/03/22 09:15:22;;;;;;;9.02;6.60;;;21.40;52.40;;;;;;4878174;29;20061;-59
2022/03/22 09:17:48;;;;;;;8.90;6.43;;;21.40;52.30;;;;;;4879223;29;20404;-58
2022/03/22 09:20:14;;;;;;;10.05;6.82;;;21.50;52.50;;;;;;4881969;29;20048;-58
2022/03/22 09:22:44;;;;;;;7.97;6.60;;;21.50;52.50;;;;;;4897144;29;20048;-59
2022/03/22 09:25:12;;;;;;;10.07;6.45;;;21.50;52.50;;;;;;4890936;29;20045;-58
2022/03/22 09:27:38;;;;;;;9.05;6.32;;;21.50;52.40;;;;;;4879287;29;20053;-58
2022/03/22 09:30:05;;;;;;;8.20;6.13;;;21.50;52.40;;;;;;4878164;29;20053;-58
2022/03/22 09:32:30;;;;;;;8.55;6.15;;;21.50;52.50;;;;;;4879010;29;20056;-58
2022/03/22 09:34:58;;;;;;;9.40;6.35;;;21.50;52.50;;;;;;4878368;29;20045;-58
2022/03/22 09:37:24;;;;;;;9.93;6.63;;;21.50;52.40;;;;;;4878750;29;20045;-58
2022/03/22 09:39:50;;;;;;;10.63;6.38;;;21.50;52.40;;;;;;4879162;29;20500;-58
2022/03/22 09:42:15;;;;;;;8.65;6.20;;;21.50;52.40;;;;;;4877412;29;20037;-58
2022/03/22 09:44:41;;;;;;;12.43;7.57;;;21.50;52.50;;;;;;4878267;29;20565;-58
2022/03/22 09:47:07;;;;;;;11.30;7.35;;;21.50;52.50;;;;;;4877441;29;20072;-59
2022/03/22 09:49:32;;;;;;;18.00;7.28;;;21.50;52.50;;;;;;4877508;29;20079;-58
2022/03/22 09:51:58;;;;;;;10.18;6.85;;;21.50;52.50;;;;;;4877045;29;20069;-58
2022/03/22 09:54:24;;;;;;;8.40;5.85;;;21.50;52.50;;;;;;4878011;29;20516;-58
2022/03/22 09:56:50;;;;;;;9.23;6.20;;;21.50;52.50;;;;;;4875823;29;20564;-58
2022/03/22 09:59:17;;;;;;;10.15;6.32;;;21.50;52.50;;;;;;4877857;29;20124;-58
2022/03/22 10:01:43;;;;;;;8.98;6.78;;;21.50;52.60;;;;;;4874732;29;20076;-59
2022/03/22 10:04:12;;;;;;;9.10;6.28;;;21.50;52.60;;;;;;4876565;29;20069;-58
2022/03/22 10:07:02;;;;;;;8.82;6.57;;;21.50;52.60;;;;;;4867672;29;20121;-58
2022/03/22 10:09:32;;;;;;;9.13;6.28;;;21.50;52.70;;;;;;4876971;29;20067;-59
2022/03/22 10:11:58;;;;;;;8.57;6.68;;;21.50;52.60;;;;;;4876532;29;20052;-59
2022/03/22 10:14:40;;;;;;;8.68;6.50;;;21.60;52.60;;;;;;4877033;29;20049;-59
2022/03/22 10:17:10;;;;;;;9.00;5.93;;;21.60;52.50;;;;;;4876555;29;20121;-60
2022/03/22 10:19:44;;;;;;;8.07;6.18;;;21.60;52.50;;;;;;4878163;29;20048;-59
2022/03/22 10:22:10;;;;;;;9.63;6.53;;;21.60;52.40;;;;;;4878582;29;20051;-59
2022/03/22 10:24:46;;;;;;;9.68;6.35;;;21.60;52.40;;;;;;4877801;29;20083;-59
2022/03/22 10:27:28;;;;;;;9.23;5.90;;;21.60;52.20;;;;;;4878279;29;20045;-59
2022/03/22 10:29:57;;;;;;;7.78;5.95;;;21.60;52.20;;;;;;4878495;29;20057;-59
2022/03/22 10:32:34;;;;;;;9.07;6.18;;;21.60;52.20;;;;;;4876433;29;20508;-59
2022/03/22 10:35:22;;;;;;;9.68;6.50;;;21.60;52.20;;;;;;4881455;29;20496;-59
2022/03/22 10:38:07;;;;;;;8.18;6.30;;;21.60;52.20;;;;;;4882261;29;20077;-59
2022/03/22 10:40:43;;;;;;;9.23;6.60;;;21.60;52.30;;;;;;4881665;29;20173;-59
2022/03/22 10:43:10;;;;;;;10.32;6.25;;;21.60;52.40;;;;;;4885672;29;20402;-58
2022/03/22 10:45:45;;;;;;;8.15;6.05;;;21.60;52.40;;;;;;4882788;29;20572;-59
2022/03/22 10:48:15;;;;;;;9.95;6.45;;;21.60;52.40;;;;;;4888685;29;20454;-58
2022/03/22 10:50:41;;;;;;;11.65;7.32;;;21.60;52.50;;;;;;4900753;29;20127;-58
2022/03/22 10:53:07;;;;;;;11.55;7.70;;;21.60;52.50;;;;;;4899902;29;20132;-58
2022/03/22 10:55:33;;;;;;;12.25;7.03;;;21.60;52.50;;;;;;4900148;29;20048;-58
2022/03/22 10:58:01;;;;;;;9.48;6.68;;;21.60;52.50;;;;;;4900331;29;20123;-58
2022/03/22 11:00:27;;;;;;;10.65;7.20;;;21.60;52.50;;;;;;4899485;29;20070;-58
2022/03/22 11:02:54;;;;;;;8.93;6.55;;;21.60;52.40;;;;;;4900474;29;20489;-59
2022/03/22 11:05:21;;;;;;;13.83;7.30;;;21.60;52.40;;;;;;4900221;29;20103;-58
2022/03/22 11:07:49;;;;;;;10.93;6.95;;;21.60;52.30;;;;;;4899732;29;20040;-58
2022/03/22 11:10:28;;;;;;;12.25;7.70;;;21.60;52.40;;;;;;4899883;29;20078;-58
2022/03/22 11:12:54;;;;;;;11.65;7.72;;;21.60;52.40;;;;;;4896808;29;20068;-58
2022/03/22 11:15:19;;;;;;;11.13;7.47;;;21.60;52.60;;;;;;4895055;29;20048;-59
2022/03/22 11:17:46;;;;;;;11.85;7.68;;;21.60;52.70;;;;;;4879849;29;20128;-58
2022/03/22 11:20:13;;;;;;;10.90;7.07;;;21.60;52.90;;;;;;4880074;29;20123;-59
2022/03/22 11:22:54;;;;;;;12.40;7.57;;;21.60;53.10;;;;;;4878570;29;20569;-58
2022/03/22 11:25:34;;;;;;;10.48;7.13;;;21.60;53.00;;;;;;4878663;29;20041;-58
2022/03/22 11:28:04;;;;;;;12.10;6.95;;;21.60;53.00;;;;;;4876607;29;20397;-58
2022/03/22 11:30:30;;;;;;;10.23;6.57;;;21.70;53.10;;;;;;4878906;29;20455;-59
2022/03/22 11:35:53;;;;;;;12.20;7.50;;;21.70;53.20;;;;;;4868549;29;20090;-58
2022/03/22 11:38:45;;;;;;;12.23;7.00;;;21.70;53.10;;;;;;4881553;29;20056;-58
2022/03/22 11:44:21;;;;;;;10.00;7.00;;;21.70;53.00;;;;;;4879863;29;20045;-59
2022/03/22 11:47:07;;;;;;;10.88;7.10;;;21.70;52.90;;;;;;4879545;29;20063;-59
2022/03/22 11:50:04;;;;;;;10.55;7.05;;;21.70;52.80;;;;;;4879803;29;20472;-59
2022/03/22 11:52:33;;;;;;;10.50;6.75;;;21.70;52.90;;;;;;4861990;29;20096;-59
2022/03/22 11:55:06;;;;;;;9.00;7.00;;;21.70;52.90;;;;;;4862342;29;20049;-59
2022/03/22 11:57:48;;;;;;;9.85;6.88;;;21.70;52.90;;;;;;4861335;29;20124;-58
2022/03/22 12:00:16;;;;;;;11.07;7.20;;;21.70;52.90;;;;;;4862026;29;20049;-58
2022/03/22 12:02:44;;;;;;;10.73;7.07;;;21.70;52.80;;;;;;4861338;29;20072;-58
2022/03/22 12:05:10;;;;;;;11.40;7.32;;;21.70;52.60;;;;;;4862388;29;20046;-58
2022/03/22 12:07:37;;;;;;;12.48;7.55;;;21.70;52.60;;;;;;4862178;29;20594;-58
2022/03/22 12:10:03;;;;;;;14.73;7.00;;;21.70;52.60;;;;;;4865980;29;20053;-58
2022/03/22 12:12:28;;;;;;;11.38;7.75;;;21.70;52.70;;;;;;4879312;29;20128;-59
2022/03/22 12:14:54;;;;;;;11.15;7.20;;;21.70;52.60;;;;;;4878621;29;20052;-59
2022/03/22 12:17:19;;;;;;;12.00;7.43;;;21.70;52.60;;;;;;4879153;29;20077;-58
2022/03/22 12:19:45;;;;;;;11.55;7.68;;;21.80;52.60;;;;;;4879758;29;20045;-58
2022/03/22 12:22:10;;;;;;;9.77;6.38;;;21.80;52.60;;;;;;4879886;29;20506;-58
2022/03/22 12:24:36;;;;;;;10.35;6.57;;;21.80;52.60;;;;;;4879203;29;20060;-58
2022/03/22 12:27:09;;;;;;;9.43;6.72;;;21.80;52.60;;;;;;4879597;29;20078;-58
2022/03/22 12:29:41;;;;;;;11.35;6.93;;;21.80;52.60;;;;;;4877020;29;20052;-58
2022/03/22 12:32:12;;;;;;;12.45;6.72;;;21.80;52.60;;;;;;4879038;29;20041;-59
2022/03/22 12:34:38;;;;;;;11.38;6.45;;;21.80;52.60;;;;;;4879076;29;20053;-58
2022/03/22 12:37:06;;;;;;;10.32;6.70;;;21.80;52.60;;;;;;4879293;29;20049;-58
2022/03/22 12:39:31;;;;;;;10.40;6.53;;;21.80;52.60;;;;;;4878095;29;20417;-58
2022/03/22 12:41:57;;;;;;;9.43;6.65;;;21.80;52.60;;;;;;4879631;29;20508;-58
2022/03/22 12:44:23;;;;;;;10.20;6.65;;;21.80;52.60;;;;;;4877883;29;20061;-58
2022/03/22 12:46:48;;;;;;;8.05;5.85;;;21.80;52.70;;;;;;4875218;29;20045;-58
2022/03/22 12:49:14;;;;;;;11.13;6.70;;;21.80;52.70;;;;;;4879103;29;20052;-58
2022/03/22 12:51:40;;;;;;;10.45;6.53;;;21.80;52.70;;;;;;4878105;29;20045;-58
2022/03/22 12:54:08;;;;;;;9.68;6.63;;;21.90;52.70;;;;;;4877492;29;20400;-59
2022/03/22 12:56:33;;;;;;;;;;;21.90;52.70;;;;;;4879104;29;20468;-58
2022/03/22 12:59:00;;;;;;;9.70;6.65;;;21.90;52.60;;;;;;4879166;29;20024;-58
2022/03/22 13:01:35;;;;;;;11.65;6.53;;;21.90;52.60;;;;;;4879387;29;20129;-58
2022/03/22 13:04:01;;;;;;;11.80;6.25;;;21.90;52.60;;;;;;4879668;29;20049;-58
2022/03/22 13:06:26;;;;;;;8.45;6.60;;;21.90;52.50;;;;;;4878474;29;20053;-58
2022/03/22 13:11:36;;;;;;;10.23;6.45;;;22.00;52.40;;;;;;4879496;29;20049;-58
2022/03/22 13:16:54;;;;;;;10.60;7.20;;;22.00;52.40;;;;;;4879365;29;20489;-58
2022/03/22 13:19:19;;;;;;;10.52;6.80;;;22.00;52.30;;;;;;4878917;29;20513;-58
2022/03/22 13:21:45;;;;;;;11.27;6.95;;;22.10;52.30;;;;;;4877983;29;20056;-58
2022/03/22 13:24:20;;;;;;;11.02;6.93;;;22.10;52.20;;;;;;4879371;29;20128;-58
2022/03/22 13:26:53;;;;;;;8.68;6.60;;;22.10;52.20;;;;;;4879188;29;20060;-57
2022/03/22 13:29:19;;;;;;;9.40;6.13;;;22.10;52.20;;;;;;4878537;29;20060;-58
2022/03/22 13:31:57;;;;;;;10.18;6.53;;;22.10;52.20;;;;;;4878439;29;20045;-58